»·PEaware :: AAL639 KDEN-KPHX

AAL639 :: KDEN-KPHX

FLIGHT INFORMATION

Flight Status: Arrived
Operator:
American Airlines
More flights by this operator :: More flights under this callsign
Pilot: Tamas B. (15764)
Aircraft: BOEING 737-800
(B738)
More flights by this aircraft type
Origin: KDEN Denver Intl
United States
Destination: KPHX Phoenix Sky Harbor Intl
United States
More flights between these airports :: More routes between these airports
Route: SOLAR3 DAAYE GUP EAGUL6
File this flight plan on PilotEdge
Remarks: PBN / A1B1C1D1S1S2 DOF / 180112 REG / N800NN EET / KZAB0042 OPR / AAL PER / C RMK / TCAS SIMBRIEF
Altitude:
(Current/Filed)
36,000ft
Speed:
(Current/Filed)
464kts
Departed: 12-Jan-18 10:01 AM
Arrived: 12-Jan-18 11:41 AM
Distance/Time
Traveled:
522nm/1:40
Distance/Time
To Go:
Arrived

Flight Plot

Page will automatically refresh every two minutes.


Map Options




Map Legend


Flown Route
Filed Route
Departure Airport
Arrival Airport
Navaid (VOR, NDB)
Fix

Horizontal Profiles

Position Reports

Time Latitude Longitude Heading Altitude Ground
Speed
12-Jan-18 09:14 39.854324 -104.670212 190 5442ft 0kts
12-Jan-18 09:15 39.854324 -104.670212 190 5442ft 0kts
12-Jan-18 09:16 39.854324 -104.670212 190 5442ft 0kts
12-Jan-18 09:17 39.854324 -104.670212 190 5442ft 0kts
12-Jan-18 09:18 39.854324 -104.670212 190 5442ft 0kts
12-Jan-18 09:19 39.854324 -104.670212 190 5442ft 0kts
12-Jan-18 09:20 39.854324 -104.670212 190 5442ft 0kts
12-Jan-18 09:21 39.854324 -104.670212 190 5442ft 0kts
12-Jan-18 09:22 39.854324 -104.670212 190 5442ft 0kts
12-Jan-18 09:23 39.854324 -104.670212 190 5442ft 0kts
12-Jan-18 09:24 39.854324 -104.670212 190 5442ft 0kts
12-Jan-18 09:25 39.854324 -104.670212 190 5442ft 0kts
12-Jan-18 09:26 39.854324 -104.670212 190 5442ft 0kts
12-Jan-18 09:27 39.854324 -104.670212 190 5442ft 0kts
12-Jan-18 09:28 39.854324 -104.670212 190 5442ft 0kts
12-Jan-18 09:29 39.854324 -104.670212 190 5442ft 0kts
12-Jan-18 09:30 39.854324 -104.670212 190 5442ft 0kts
12-Jan-18 09:31 39.854324 -104.670212 190 5442ft 0kts
12-Jan-18 09:32 39.854324 -104.670212 190 5442ft 0kts
12-Jan-18 09:33 39.854324 -104.670212 190 5442ft 0kts
12-Jan-18 09:34 39.854324 -104.670212 190 5442ft 0kts
12-Jan-18 09:35 39.854324 -104.670212 190 5442ft 0kts
12-Jan-18 09:36 39.854324 -104.670212 190 5442ft 0kts
12-Jan-18 09:37 39.854324 -104.670212 190 5442ft 0kts
12-Jan-18 09:38 39.854324 -104.670212 190 5442ft 0kts
12-Jan-18 09:39 39.854324 -104.670212 190 5441ft 0kts
12-Jan-18 09:40 39.854324 -104.670212 190 5441ft 0kts
12-Jan-18 09:41 39.854324 -104.670212 190 5441ft 0kts
12-Jan-18 09:42 39.854324 -104.670212 190 5441ft 0kts
12-Jan-18 09:43 39.854324 -104.670212 190 5441ft 0kts
12-Jan-18 09:44 39.854324 -104.670212 190 5441ft 0kts
12-Jan-18 09:45 39.854324 -104.670212 190 5441ft 0kts
12-Jan-18 09:46 39.854347 -104.670209 190 5442ft 1kts
12-Jan-18 09:47 39.854907 -104.670384 140 5442ft 2kts
12-Jan-18 09:48 39.855176 -104.671036 93 5442ft 1kts
12-Jan-18 09:49 39.855178 -104.671141 89 5442ft 0kts
12-Jan-18 09:50 39.855178 -104.671141 89 5442ft 0kts
12-Jan-18 09:51 39.855178 -104.671141 89 5442ft 0kts
12-Jan-18 09:52 39.855272 -104.670568 48 5442ft 8kts
12-Jan-18 09:53 39.855905 -104.674354 270 5441ft 14kts
12-Jan-18 09:54 39.855923 -104.677902 270 5441ft 0kts
12-Jan-18 09:55 39.855949 -104.680671 270 5441ft 0kts
12-Jan-18 09:56 39.855949 -104.680671 270 5441ft 0kts
12-Jan-18 09:57 39.855968 -104.682720 270 5441ft 0kts
12-Jan-18 09:58 39.855968 -104.682720 270 5441ft 0kts
12-Jan-18 09:59 39.855968 -104.682720 270 5441ft 0kts
12-Jan-18 10:00 39.855564 -104.683829 195 5441ft 7kts
12-Jan-18 10:01 39.852480 -104.683913 180 5441ft 17kts
12-Jan-18 10:02 39.845846 -104.683982 180 5442ft 23kts
12-Jan-18 10:03 39.841959 -104.684031 180 5442ft 0kts
12-Jan-18 10:04 39.841959 -104.684031 180 5442ft 0kts
12-Jan-18 10:05 39.841503 -104.684033 179 5442ft 6kts
12-Jan-18 10:06 39.840920 -104.684157 210 5442ft 5kts
12-Jan-18 10:07 39.840784 -104.703104 268 5442ft 122kts
12-Jan-18 10:08 39.840932 -104.746064 270 5822ft 167kts
12-Jan-18 10:09 39.828781 -104.805521 253 6914ft 213kts
12-Jan-18 10:10 39.803917 -104.879935 233 8764ft 260kts
12-Jan-18 10:11 39.745755 -104.924486 194 10564ft 312kts
12-Jan-18 10:12 39.662523 -104.915597 171 12468ft 350kts
12-Jan-18 10:13 39.582362 -104.876603 152 14644ft 368kts
12-Jan-18 10:14 39.497718 -104.823386 173 17135ft 378kts
12-Jan-18 10:15 39.400682 -104.832856 205 19331ft 375kts
12-Jan-18 10:16 39.316349 -104.893336 216 21394ft 379kts
12-Jan-18 10:17 39.231012 -104.968599 226 23410ft 382kts
12-Jan-18 10:18 39.150214 -105.055107 224 25293ft 394kts
12-Jan-18 10:19 39.050971 -105.120908 213 27106ft 412kts
12-Jan-18 10:20 38.951037 -105.184441 215 29215ft 405kts
12-Jan-18 10:21 38.858615 -105.243502 216 30926ft 399kts
12-Jan-18 10:22 38.766110 -105.302695 217 32323ft 395kts
12-Jan-18 10:23 38.670525 -105.363875 217 33525ft 395kts
12-Jan-18 10:24 38.577621 -105.422888 217 34658ft 393kts
12-Jan-18 10:25 38.483019 -105.482345 217 35755ft 390kts
12-Jan-18 10:26 38.391154 -105.540062 217 36240ft 385kts
12-Jan-18 10:27 38.295663 -105.600228 217 36284ft 412kts
12-Jan-18 10:28 38.195178 -105.663396 215 36303ft 439kts
12-Jan-18 10:29 38.096954 -105.725124 215 36293ft 456kts
12-Jan-18 10:30 37.994673 -105.800055 233 36314ft 432kts
12-Jan-18 10:31 37.910677 -105.902936 233 36291ft 433kts
12-Jan-18 10:32 37.836621 -105.992129 233 36282ft 432kts
12-Jan-18 10:33 37.751803 -106.094094 233 36281ft 432kts
12-Jan-18 10:34 37.667573 -106.195449 233 36280ft 433kts
12-Jan-18 10:35 37.582165 -106.298344 233 36277ft 432kts
12-Jan-18 10:36 37.496542 -106.401603 233 36293ft 432kts
12-Jan-18 10:37 37.410723 -106.505223 233 36319ft 432kts
12-Jan-18 10:38 37.324613 -106.609303 233 36330ft 432kts
12-Jan-18 10:39 37.247432 -106.702677 233 36343ft 432kts
12-Jan-18 10:40 37.165826 -106.801511 233 36346ft 432kts
12-Jan-18 10:41 37.079966 -106.905594 234 36345ft 429kts
12-Jan-18 10:42 36.995669 -107.007943 234 36344ft 425kts
12-Jan-18 10:43 36.911418 -107.110370 235 36344ft 423kts
12-Jan-18 10:44 36.831066 -107.208155 235 36331ft 424kts
12-Jan-18 10:45 36.747861 -107.309522 235 36331ft 424kts
12-Jan-18 10:46 36.664745 -107.410887 235 36324ft 423kts
12-Jan-18 10:47 36.581629 -107.512369 235 36319ft 423kts
12-Jan-18 10:48 36.498536 -107.613936 235 36329ft 422kts
12-Jan-18 10:49 36.421522 -107.708122 235 36356ft 424kts
12-Jan-18 10:50 36.338635 -107.809608 235 36362ft 423kts
12-Jan-18 10:51 36.256519 -107.910287 235 36362ft 423kts
12-Jan-18 10:52 36.174027 -108.011556 235 36360ft 423kts
12-Jan-18 10:53 36.090982 -108.113603 235 36358ft 423kts
12-Jan-18 10:54 36.008517 -108.215048 235 36368ft 422kts
12-Jan-18 10:55 35.925821 -108.316878 235 36368ft 422kts
12-Jan-18 10:56 35.861334 -108.396378 236 36356ft 422kts
12-Jan-18 10:57 35.788453 -108.486283 236 36357ft 422kts
12-Jan-18 10:58 35.706185 -108.587889 236 36355ft 422kts
12-Jan-18 10:59 35.625656 -108.687416 235 36371ft 423kts
12-Jan-18 11:00 35.545329 -108.786759 236 36369ft 422kts
12-Jan-18 11:01 35.463270 -108.888801 237 36366ft 421kts
12-Jan-18 11:02 35.383036 -108.992200 236 36368ft 422kts
12-Jan-18 11:03 35.302115 -109.095802 236 36366ft 425kts
12-Jan-18 11:04 35.220437 -109.200378 236 36367ft 427kts
12-Jan-18 11:05 35.138860 -109.304903 236 36357ft 427kts
12-Jan-18 11:06 35.057420 -109.409395 236 36343ft 427kts
12-Jan-18 11:07 34.976983 -109.512695 236 36336ft 423kts
12-Jan-18 11:08 34.898100 -109.614131 236 36335ft 417kts
12-Jan-18 11:09 34.831672 -109.699592 236 36339ft 417kts
12-Jan-18 11:10 34.759626 -109.791211 236 36356ft 417kts
12-Jan-18 11:11 34.691616 -109.899374 253 36378ft 395kts
12-Jan-18 11:12 34.646505 -110.020414 253 36364ft 394kts
12-Jan-18 11:13 34.601560 -110.140284 253 36363ft 395kts
12-Jan-18 11:14 34.558646 -110.254477 254 36229ft 353kts
12-Jan-18 11:15 34.516634 -110.367471 254 34357ft 388kts
12-Jan-18 11:16 34.470467 -110.490318 253 32483ft 417kts
12-Jan-18 11:17 34.423758 -110.612516 253 32021ft 371kts
12-Jan-18 11:18 34.386009 -110.711624 254 30339ft 338kts
12-Jan-18 11:19 34.340377 -110.814796 236 27945ft 375kts
12-Jan-18 11:20 34.267939 -110.907153 234 26152ft 383kts
12-Jan-18 11:21 34.197615 -110.997622 234 24543ft 365kts
12-Jan-18 11:22 34.129673 -111.085387 234 22992ft 357kts
12-Jan-18 11:23 34.062334 -111.171685 233 21459ft 350kts
12-Jan-18 11:24 34.000103 -111.251200 233 20036ft 316kts
12-Jan-18 11:25 33.942448 -111.325016 233 18727ft 299kts
12-Jan-18 11:26 33.881513 -111.403274 234 17177ft 326kts
12-Jan-18 11:27 33.835335 -111.489988 243 15303ft 307kts
12-Jan-18 11:28 33.790634 -111.575553 242 13666ft 300kts
12-Jan-18 11:29 33.747375 -111.656640 241 12648ft 279kts
12-Jan-18 11:30 33.707817 -111.730855 241 11820ft 271kts
12-Jan-18 11:31 33.669091 -111.803733 241 10991ft 249kts
12-Jan-18 11:32 33.633717 -111.870396 241 10217ft 244kts
12-Jan-18 11:33 33.598753 -111.936110 240 9221ft 241kts
12-Jan-18 11:34 33.566949 -111.995729 240 8245ft 235kts
12-Jan-18 11:35 33.534753 -112.056176 238 7270ft 231kts
12-Jan-18 11:36 33.525393 -112.119498 269 7021ft 219kts
12-Jan-18 11:37 33.519137 -112.186968 263 7024ft 230kts
12-Jan-18 11:38 33.508866 -112.257815 262 6617ft 233kts
12-Jan-18 11:39 33.494992 -112.327944 235 5337ft 228kts
12-Jan-18 11:40 33.448771 -112.317270 112 4102ft 223kts
12-Jan-18 11:41 33.440854 -112.252154 88 4027ft 184kts
12-Jan-18 11:42 33.440852 -112.196584 88 3894ft 165kts
12-Jan-18 11:43 33.440891 -112.148677 89 3146ft 149kts
12-Jan-18 11:44 33.440965 -112.103014 89 2423ft 149kts
12-Jan-18 11:45 33.440822 -112.057951 89 1684ft 149kts
12-Jan-18 11:46 33.440796 -112.013870 88 1142ft 119kts
12-Jan-18 11:47 33.440172 -112.007100 172 1142ft 0kts
12-Jan-18 11:48 33.440170 -112.007100 173 1142ft 0kts
12-Jan-18 11:49 33.439552 -112.007247 192 1142ft 4kts
12-Jan-18 11:50 33.439043 -112.004609 89 1142ft 16kts
12-Jan-18 11:51 33.439044 -112.000662 89 1142ft 8kts
12-Jan-18 11:52 33.439045 -111.997328 90 1142ft 12kts
12-Jan-18 11:53 33.438759 -111.994615 164 1141ft 5kts
12-Jan-18 11:54 33.438297 -111.994562 178 1141ft 0kts
12-Jan-18 11:55 33.438297 -111.994562 178 1141ft 0kts
12-Jan-18 11:56 33.438297 -111.994562 178 1141ft 0kts

Navigation Log

Ident Type
1. KDEN Airport
2. GUP Navaid
3. SLIDR Fix
4. PAYSO Fix
5. EAGUL Fix
6. PICHR Fix
7. HOMRR Fix
8. QUENY Fix
9. HINEY Fix
10. BASBL Fix
11. KPHX Airport